Orbital elements of FENGYUN 1C DEB
| Launched | 9 May 1999 |
| Flight ended | – |
| Launch site | Taiyuan Space Center, PRC |
| Owner | People's Republic of China |
| NORAD ID | 30250 |
| Date fetched |
Epoch osculation |
Inc. [°] |
Ecc. | RA asc node [hr] |
Arg Peri. [°] |
Mean anom [°] |
Mean motion [rev/day] |
Abs. mag |
| Date fetched |
Epoch osculation |
Inc. [°] |
Ecc. | RA asc node [hr] |
Arg Peri. [°] |
Mean anom [°] |
Mean motion [rev/day] |
Abs. mag |
| 2026 May 09 17:57 | 2026 May 05 11:21:33 | 98.7630 | 0.00665 | 7.7803 | 180.7989 | 331.1702 | 14.01793 | – |
| 2026 May 08 17:57 | 2026 May 05 11:21:33 | 98.7630 | 0.00665 | 7.7803 | 180.7989 | 331.1702 | 14.01793 | – |
| 2026 May 07 17:58 | 2026 May 05 11:21:33 | 98.7630 | 0.00665 | 7.7803 | 180.7989 | 331.1702 | 14.01793 | – |
| 2026 May 06 17:57 | 2026 May 05 11:21:33 | 98.7630 | 0.00665 | 7.7803 | 180.7989 | 331.1702 | 14.01793 | – |
| 2026 May 05 17:57 | 2026 May 05 11:21:33 | 98.7630 | 0.00665 | 7.7803 | 180.7989 | 331.1702 | 14.01793 | – |
| 2026 May 04 17:57 | 2026 Apr 30 11:27:05 | 98.7633 | 0.00661 | 7.4602 | 194.9200 | 331.1702 | 14.01793 | – |
| 2026 May 03 17:57 | 2026 Apr 30 11:27:05 | 98.7633 | 0.00661 | 7.4602 | 194.9200 | 331.1702 | 14.01793 | – |
| 2026 May 02 17:57 | 2026 Apr 30 11:27:05 | 98.7633 | 0.00661 | 7.4602 | 194.9200 | 331.1702 | 14.01793 | – |
| 2026 May 01 17:56 | 2026 Apr 30 11:27:05 | 98.7633 | 0.00661 | 7.4602 | 194.9200 | 331.1702 | 14.01793 | – |
| 2026 Apr 30 17:56 | 2026 Apr 30 11:27:05 | 98.7633 | 0.00661 | 7.4602 | 194.9200 | 331.1702 | 14.01793 | – |
| 2026 Apr 29 17:57 | 2026 Apr 24 13:07:33 | 98.7638 | 0.00659 | 7.0802 | 211.7993 | 331.1702 | 14.01793 | – |
| 2026 Apr 28 17:56 | 2026 Apr 24 13:07:33 | 98.7638 | 0.00659 | 7.0802 | 211.7993 | 331.1702 | 14.01793 | – |
| 2026 Apr 27 17:58 | 2026 Apr 24 13:07:33 | 98.7638 | 0.00659 | 7.0802 | 211.7993 | 331.1702 | 14.01793 | – |
| 2026 Apr 26 17:58 | 2026 Apr 24 13:07:33 | 98.7638 | 0.00659 | 7.0802 | 211.7993 | 331.1702 | 14.01793 | – |
| 2026 Apr 25 17:58 | 2026 Apr 24 13:07:33 | 98.7638 | 0.00659 | 7.0802 | 211.7993 | 331.1702 | 14.01793 | – |
| 2026 Apr 24 17:59 | 2026 Apr 24 13:07:33 | 98.7638 | 0.00659 | 7.0802 | 211.7993 | 331.1702 | 14.01793 | – |
| 2026 Apr 23 17:57 | 2026 Apr 19 05:49:49 | 98.7639 | 0.00659 | 6.7403 | 226.9305 | 331.1702 | 14.01793 | – |
| 2026 Apr 22 17:57 | 2026 Apr 19 05:49:49 | 98.7639 | 0.00659 | 6.7403 | 226.9305 | 331.1702 | 14.01793 | – |
| 2026 Apr 21 17:57 | 2026 Apr 19 05:49:49 | 98.7639 | 0.00659 | 6.7403 | 226.9305 | 331.1702 | 14.01793 | – |
| 2026 Apr 20 17:57 | 2026 Apr 19 05:49:49 | 98.7639 | 0.00659 | 6.7403 | 226.9305 | 331.1702 | 14.01793 | – |
| 2026 Apr 19 17:58 | 2026 Apr 19 05:49:49 | 98.7639 | 0.00659 | 6.7403 | 226.9305 | 331.1702 | 14.01793 | – |
| 2026 Apr 18 17:56 | 2026 Apr 12 18:44:32 | 98.7639 | 0.00660 | 6.3262 | 245.3806 | 331.1702 | 14.01793 | – |
| 2026 Apr 16 17:57 | 2026 Apr 12 18:44:32 | 98.7639 | 0.00660 | 6.3262 | 245.3806 | 331.1702 | 14.01793 | – |
| 2026 Apr 14 17:57 | 2026 Apr 12 18:44:32 | 98.7639 | 0.00660 | 6.3262 | 245.3806 | 331.1702 | 14.01793 | – |
| 2026 Apr 13 17:57 | 2026 Apr 12 18:44:32 | 98.7639 | 0.00660 | 6.3262 | 245.3806 | 331.1702 | 14.01793 | – |
| 2026 Apr 12 17:57 | 2026 Apr 08 06:02:12 | 98.7634 | 0.00661 | 6.0360 | 258.2472 | 331.1702 | 14.01793 | – |